Minkler, California
Current Conditions -  °F | °C
As of 4:53 AM on Sunday 21 Dec 2014 (Local Time) from KFAT Reporting Station
Moderate Fog Moderate Fog  
Wind Chill: 47°   Ceiling: 200
Heat Index: 47°   Visibility: 0.06mi
Dew Point: 46°   Wind: 3mph
Humidity: 97%   Direction: 130°SE
Pressure: 30.26"   Gusts: NA
Location:  36.8137°N, 119.374°W
Report Text: KFAT 211253Z 13003KT 1/16SM R29R/1200V1800FT FG VV002 08/08 A3026 RMK AO2 SLP247 T00830078
Loading
Personal Weather Stations






























Interactive Weather Map New forecast layout! Learn more

10-Day Weather Forecast

Advertisements
Track Severe Weather on mobile